sensor_id;sensor_type;location;lat;lon;timestamp;P1;durP1;ratioP1;P2;durP2;ratioP2
48873;SDS011;66155;46.204;5.220;2024-03-23T00:54:33;7.67;;;3.97;;
48873;SDS011;66155;46.204;5.220;2024-03-23T00:59:33;4.27;;;3.83;;
48873;SDS011;66155;46.204;5.220;2024-03-23T01:04:34;8.32;;;3.97;;
48873;SDS011;66155;46.204;5.220;2024-03-23T01:09:34;4.57;;;3.60;;
48873;SDS011;66155;46.204;5.220;2024-03-23T01:14:34;8.02;;;3.92;;
48873;SDS011;66155;46.204;5.220;2024-03-23T01:19:36;5.47;;;3.97;;
48873;SDS011;66155;46.204;5.220;2024-03-23T01:24:36;5.95;;;4.30;;
48873;SDS011;66155;46.204;5.220;2024-03-23T01:29:36;6.00;;;4.13;;
48873;SDS011;66155;46.204;5.220;2024-03-23T01:34:37;6.80;;;4.47;;
48873;SDS011;66155;46.204;5.220;2024-03-23T01:39:37;7.93;;;4.93;;
48873;SDS011;66155;46.204;5.220;2024-03-23T01:44:38;11.07;;;4.03;;
48873;SDS011;66155;46.204;5.220;2024-03-23T01:49:38;8.03;;;5.00;;
48873;SDS011;66155;46.204;5.220;2024-03-23T01:54:39;6.50;;;4.93;;
48873;SDS011;66155;46.204;5.220;2024-03-23T01:59:40;5.78;;;4.13;;
48873;SDS011;66155;46.204;5.220;2024-03-23T02:04:41;5.57;;;4.93;;
48873;SDS011;66155;46.204;5.220;2024-03-23T02:09:41;8.85;;;5.22;;
48873;SDS011;66155;46.204;5.220;2024-03-23T02:14:43;6.35;;;5.13;;
48873;SDS011;66155;46.204;5.220;2024-03-23T02:19:43;6.63;;;4.25;;
48873;SDS011;66155;46.204;5.220;2024-03-23T02:24:44;7.05;;;5.30;;
48873;SDS011;66155;46.204;5.220;2024-03-23T02:29:44;8.57;;;5.30;;
48873;SDS011;66155;46.204;5.220;2024-03-23T02:34:45;6.95;;;4.82;;
48873;SDS011;66155;46.204;5.220;2024-03-23T02:39:45;12.30;;;4.93;;
48873;SDS011;66155;46.204;5.220;2024-03-23T02:44:45;5.50;;;3.83;;
48873;SDS011;66155;46.204;5.220;2024-03-23T02:49:46;5.60;;;4.47;;
48873;SDS011;66155;46.204;5.220;2024-03-23T02:54:46;8.73;;;5.57;;
48873;SDS011;66155;46.204;5.220;2024-03-23T02:59:46;6.93;;;4.83;;
48873;SDS011;66155;46.204;5.220;2024-03-23T03:04:47;6.47;;;4.63;;
48873;SDS011;66155;46.204;5.220;2024-03-23T03:09:47;10.70;;;5.25;;
48873;SDS011;66155;46.204;5.220;2024-03-23T03:14:48;12.43;;;4.87;;
48873;SDS011;66155;46.204;5.220;2024-03-23T03:19:48;7.65;;;4.97;;
48873;SDS011;66155;46.204;5.220;2024-03-23T03:24:49;9.70;;;5.23;;
48873;SDS011;66155;46.204;5.220;2024-03-23T03:29:49;7.75;;;4.85;;
48873;SDS011;66155;46.204;5.220;2024-03-23T03:34:49;7.10;;;4.57;;
48873;SDS011;66155;46.204;5.220;2024-03-23T03:39:50;8.65;;;5.43;;
48873;SDS011;66155;46.204;5.220;2024-03-23T03:44:51;10.13;;;4.93;;
48873;SDS011;66155;46.204;5.220;2024-03-23T03:49:52;6.68;;;4.90;;
48873;SDS011;66155;46.204;5.220;2024-03-23T03:54:55;7.05;;;4.68;;
48873;SDS011;66155;46.204;5.220;2024-03-23T04:00:02;6.18;;;5.30;;
48873;SDS011;66155;46.204;5.220;2024-03-23T04:05:03;5.82;;;4.80;;
48873;SDS011;66155;46.204;5.220;2024-03-23T04:10:04;8.57;;;5.57;;
48873;SDS011;66155;46.204;5.220;2024-03-23T04:15:07;6.22;;;5.25;;
48873;SDS011;66155;46.204;5.220;2024-03-23T04:20:08;7.35;;;5.63;;
48873;SDS011;66155;46.204;5.220;2024-03-23T04:25:11;11.10;;;5.53;;
48873;SDS011;66155;46.204;5.220;2024-03-23T04:30:11;9.65;;;5.75;;
48873;SDS011;66155;46.204;5.220;2024-03-23T04:35:12;7.72;;;4.45;;
48873;SDS011;66155;46.204;5.220;2024-03-23T04:40:13;8.20;;;5.07;;
48873;SDS011;66155;46.204;5.220;2024-03-23T04:45:13;11.65;;;5.45;;
48873;SDS011;66155;46.204;5.220;2024-03-23T04:50:14;5.65;;;4.82;;
48873;SDS011;66155;46.204;5.220;2024-03-23T04:55:14;10.48;;;6.03;;
48873;SDS011;66155;46.204;5.220;2024-03-23T05:00:14;8.70;;;5.30;;
48873;SDS011;66155;46.204;5.220;2024-03-23T05:05:17;5.85;;;4.10;;
48873;SDS011;66155;46.204;5.220;2024-03-23T05:10:18;8.50;;;5.38;;
48873;SDS011;66155;46.204;5.220;2024-03-23T05:15:19;7.85;;;5.20;;
48873;SDS011;66155;46.204;5.220;2024-03-23T05:20:19;10.60;;;5.77;;
48873;SDS011;66155;46.204;5.220;2024-03-23T05:25:19;9.67;;;5.67;;
48873;SDS011;66155;46.204;5.220;2024-03-23T05:30:20;8.52;;;5.68;;
48873;SDS011;66155;46.204;5.220;2024-03-23T05:35:20;6.85;;;5.50;;
48873;SDS011;66155;46.204;5.220;2024-03-23T05:40:20;9.93;;;6.43;;
48873;SDS011;66155;46.204;5.220;2024-03-23T05:45:21;8.23;;;6.07;;
48873;SDS011;66155;46.204;5.220;2024-03-23T05:50:22;8.13;;;6.07;;
48873;SDS011;66155;46.204;5.220;2024-03-23T05:55:23;8.00;;;5.55;;
48873;SDS011;66155;46.204;5.220;2024-03-23T06:00:23;4.20;;;3.27;;
48873;SDS011;66155;46.204;5.220;2024-03-23T06:05:26;7.30;;;3.72;;
48873;SDS011;66155;46.204;5.220;2024-03-23T06:10:27;2.60;;;2.40;;
48873;SDS011;66155;46.204;5.220;2024-03-23T06:15:28;2.60;;;2.40;;
48873;SDS011;66155;46.204;5.220;2024-03-23T06:20:28;4.00;;;2.10;;
48873;SDS011;66155;46.204;5.220;2024-03-23T06:25:29;2.47;;;2.28;;
48873;SDS011;66155;46.204;5.220;2024-03-23T06:30:30;2.67;;;1.88;;
48873;SDS011;66155;46.204;5.220;2024-03-23T06:35:32;3.25;;;1.92;;
48873;SDS011;66155;46.204;5.220;2024-03-23T06:40:32;2.00;;;1.80;;
48873;SDS011;66155;46.204;5.220;2024-03-23T06:45:32;3.73;;;2.20;;
48873;SDS011;66155;46.204;5.220;2024-03-23T06:50:33;2.38;;;2.17;;
48873;SDS011;66155;46.204;5.220;2024-03-23T06:55:34;4.15;;;3.95;;
48873;SDS011;66155;46.204;5.220;2024-03-23T07:00:34;2.87;;;2.00;;
48873;SDS011;66155;46.204;5.220;2024-03-23T07:05:34;2.30;;;2.10;;
48873;SDS011;66155;46.204;5.220;2024-03-23T07:10:37;5.05;;;2.10;;
48873;SDS011;66155;46.204;5.220;2024-03-23T07:15:39;3.30;;;2.33;;
48873;SDS011;66155;46.204;5.220;2024-03-23T07:20:39;2.13;;;2.00;;
48873;SDS011;66155;46.204;5.220;2024-03-23T07:25:40;2.70;;;2.03;;
48873;SDS011;66155;46.204;5.220;2024-03-23T07:30:40;4.37;;;2.97;;
48873;SDS011;66155;46.204;5.220;2024-03-23T07:35:40;4.50;;;2.30;;
48873;SDS011;66155;46.204;5.220;2024-03-23T07:40:41;3.63;;;3.30;;
48873;SDS011;66155;46.204;5.220;2024-03-23T07:45:41;5.37;;;2.70;;
48873;SDS011;66155;46.204;5.220;2024-03-23T07:50:42;5.90;;;2.80;;
48873;SDS011;66155;46.204;5.220;2024-03-23T07:55:42;11.33;;;6.20;;
48873;SDS011;66155;46.204;5.220;2024-03-23T08:00:52;7.90;;;2.80;;
48873;SDS011;66155;46.204;5.220;2024-03-23T08:05:53;6.30;;;2.53;;
48873;SDS011;66155;46.204;5.220;2024-03-23T08:10:53;9.02;;;4.80;;
48873;SDS011;66155;46.204;5.220;2024-03-23T08:15:57;10.48;;;2.67;;
48873;SDS011;66155;46.204;5.220;2024-03-23T08:20:59;10.65;;;4.05;;
48873;SDS011;66155;46.204;5.220;2024-03-23T08:26:01;5.90;;;2.70;;
48873;SDS011;66155;46.204;5.220;2024-03-23T08:31:06;5.03;;;3.45;;
48873;SDS011;66155;46.204;5.220;2024-03-23T08:36:08;7.90;;;2.88;;
48873;SDS011;66155;46.204;5.220;2024-03-23T08:41:12;11.88;;;3.28;;
48873;SDS011;66155;46.204;5.220;2024-03-23T08:46:13;6.28;;;2.60;;
48873;SDS011;66155;46.204;5.220;2024-03-23T08:51:15;9.55;;;3.10;;
48873;SDS011;66155;46.204;5.220;2024-03-23T08:56:17;4.38;;;2.80;;
48873;SDS011;66155;46.204;5.220;2024-03-23T09:01:17;5.00;;;3.08;;
48873;SDS011;66155;46.204;5.220;2024-03-23T09:06:17;7.82;;;4.07;;
48873;SDS011;66155;46.204;5.220;2024-03-23T09:11:18;5.60;;;3.00;;
48873;SDS011;66155;46.204;5.220;2024-03-23T09:16:18;6.53;;;2.88;;
48873;SDS011;66155;46.204;5.220;2024-03-23T09:21:18;6.75;;;3.88;;
48873;SDS011;66155;46.204;5.220;2024-03-23T09:26:19;7.82;;;5.80;;
48873;SDS011;66155;46.204;5.220;2024-03-23T09:31:19;9.70;;;3.22;;
48873;SDS011;66155;46.204;5.220;2024-03-23T09:36:20;4.65;;;3.80;;
48873;SDS011;66155;46.204;5.220;2024-03-23T09:41:20;5.07;;;4.63;;
48873;SDS011;66155;46.204;5.220;2024-03-23T09:46:21;7.70;;;3.05;;
48873;SDS011;66155;46.204;5.220;2024-03-23T09:51:21;4.47;;;3.15;;
48873;SDS011;66155;46.204;5.220;2024-03-23T09:56:22;6.05;;;2.60;;
48873;SDS011;66155;46.204;5.220;2024-03-23T10:01:23;5.20;;;2.92;;
48873;SDS011;66155;46.204;5.220;2024-03-23T10:06:24;6.40;;;2.78;;
48873;SDS011;66155;46.204;5.220;2024-03-23T10:11:27;5.38;;;2.47;;
48873;SDS011;66155;46.204;5.220;2024-03-23T10:16:29;3.03;;;1.92;;
48873;SDS011;66155;46.204;5.220;2024-03-23T10:21:29;4.13;;;2.15;;
48873;SDS011;66155;46.204;5.220;2024-03-23T10:26:30;3.33;;;2.13;;
48873;SDS011;66155;46.204;5.220;2024-03-23T10:31:31;2.50;;;2.25;;
48873;SDS011;66155;46.204;5.220;2024-03-23T10:36:31;5.43;;;4.47;;
48873;SDS011;66155;46.204;5.220;2024-03-23T10:41:33;4.63;;;2.78;;
48873;SDS011;66155;46.204;5.220;2024-03-23T10:46:34;6.72;;;2.67;;
48873;SDS011;66155;46.204;5.220;2024-03-23T10:51:37;5.07;;;2.65;;
48873;SDS011;66155;46.204;5.220;2024-03-23T10:56:38;6.00;;;3.55;;
48873;SDS011;66155;46.204;5.220;2024-03-23T11:01:56;6.25;;;2.70;;
48873;SDS011;66155;46.204;5.220;2024-03-23T11:06:57;5.63;;;3.00;;
48873;SDS011;66155;46.204;5.220;2024-03-23T11:11:58;5.72;;;3.22;;
48873;SDS011;66155;46.204;5.220;2024-03-23T11:17:35;4.93;;;2.40;;
48873;SDS011;66155;46.204;5.220;2024-03-23T11:27:43;4.80;;;2.10;;
48873;SDS011;66155;46.204;5.220;2024-03-23T11:32:45;2.25;;;1.90;;
48873;SDS011;66155;46.204;5.220;2024-03-23T11:37:46;3.88;;;1.90;;
48873;SDS011;66155;46.204;5.220;2024-03-23T11:43:05;5.43;;;2.13;;
48873;SDS011;66155;46.204;5.220;2024-03-23T11:48:07;3.67;;;2.45;;
48873;SDS011;66155;46.204;5.220;2024-03-23T11:53:18;2.33;;;2.10;;
48873;SDS011;66155;46.204;5.220;2024-03-23T11:58:21;5.05;;;2.10;;
48873;SDS011;66155;46.204;5.220;2024-03-23T12:03:23;5.03;;;2.40;;
48873;SDS011;66155;46.204;5.220;2024-03-23T12:13:28;8.63;;;2.90;;
48873;SDS011;66155;46.204;5.220;2024-03-23T12:18:29;4.88;;;2.60;;
48873;SDS011;66155;46.204;5.220;2024-03-23T12:23:30;4.63;;;2.25;;
48873;SDS011;66155;46.204;5.220;2024-03-23T12:28:30;6.78;;;2.58;;
48873;SDS011;66155;46.204;5.220;2024-03-23T12:33:31;3.95;;;2.13;;
48873;SDS011;66155;46.204;5.220;2024-03-23T12:38:32;7.63;;;2.20;;
48873;SDS011;66155;46.204;5.220;2024-03-23T12:43:32;4.90;;;4.50;;
48873;SDS011;66155;46.204;5.220;2024-03-23T12:48:33;3.25;;;2.40;;
48873;SDS011;66155;46.204;5.220;2024-03-23T12:53:33;3.80;;;2.35;;
48873;SDS011;66155;46.204;5.220;2024-03-23T12:58:33;5.30;;;2.70;;
48873;SDS011;66155;46.204;5.220;2024-03-23T13:03:34;4.22;;;2.78;;
48873;SDS011;66155;46.204;5.220;2024-03-23T13:08:34;2.63;;;2.30;;
48873;SDS011;66155;46.204;5.220;2024-03-23T13:13:35;2.40;;;2.22;;
48873;SDS011;66155;46.204;5.220;2024-03-23T13:18:35;4.10;;;2.72;;
48873;SDS011;66155;46.204;5.220;2024-03-23T13:23:36;7.53;;;5.68;;
48873;SDS011;66155;46.204;5.220;2024-03-23T13:28:38;5.25;;;4.72;;
48873;SDS011;66155;46.204;5.220;2024-03-23T13:33:38;3.83;;;3.30;;
48873;SDS011;66155;46.204;5.220;2024-03-23T13:38:39;4.30;;;2.50;;
48873;SDS011;66155;46.204;5.220;2024-03-23T13:43:41;4.35;;;2.17;;
48873;SDS011;66155;46.204;5.220;2024-03-23T13:48:41;4.68;;;2.40;;
48873;SDS011;66155;46.204;5.220;2024-03-23T13:53:42;6.32;;;2.83;;
48873;SDS011;66155;46.204;5.220;2024-03-23T13:58:42;3.53;;;3.10;;
48873;SDS011;66155;46.204;5.220;2024-03-23T14:03:46;3.95;;;2.38;;
48873;SDS011;66155;46.204;5.220;2024-03-23T14:08:49;4.70;;;3.40;;
48873;SDS011;66155;46.204;5.220;2024-03-23T14:13:50;7.88;;;3.05;;
48873;SDS011;66155;46.204;5.220;2024-03-23T14:18:51;3.27;;;2.37;;
48873;SDS011;66155;46.204;5.220;2024-03-23T14:23:52;4.90;;;2.10;;
48873;SDS011;66155;46.204;5.220;2024-03-23T14:28:52;9.00;;;2.90;;
48873;SDS011;66155;46.204;5.220;2024-03-23T14:33:52;3.83;;;2.38;;
48873;SDS011;66155;46.204;5.220;2024-03-23T14:38:53;3.90;;;2.50;;
48873;SDS011;66155;46.204;5.220;2024-03-23T14:43:53;6.90;;;3.10;;
48873;SDS011;66155;46.204;5.220;2024-03-23T14:48:54;4.80;;;2.55;;
48873;SDS011;66155;46.204;5.220;2024-03-23T14:53:55;5.85;;;2.22;;
48873;SDS011;66155;46.204;5.220;2024-03-23T14:58:55;8.43;;;4.22;;
48873;SDS011;66155;46.204;5.220;2024-03-23T15:03:56;6.43;;;2.78;;
48873;SDS011;66155;46.204;5.220;2024-03-23T15:08:56;4.70;;;3.30;;
48873;SDS011;66155;46.204;5.220;2024-03-23T15:13:57;4.47;;;3.35;;
48873;SDS011;66155;46.204;5.220;2024-03-23T15:18:57;4.15;;;2.25;;
48873;SDS011;66155;46.204;5.220;2024-03-23T15:23:58;6.35;;;3.25;;
48873;SDS011;66155;46.204;5.220;2024-03-23T15:28:58;8.20;;;2.80;;
48873;SDS011;66155;46.204;5.220;2024-03-23T15:33:58;3.53;;;2.80;;
48873;SDS011;66155;46.204;5.220;2024-03-23T15:38:59;3.95;;;3.63;;
48873;SDS011;66155;46.204;5.220;2024-03-23T15:43:59;3.40;;;2.87;;
48873;SDS011;66155;46.204;5.220;2024-03-23T15:49:00;3.88;;;3.42;;
48873;SDS011;66155;46.204;5.220;2024-03-23T15:54:00;5.90;;;3.13;;
48873;SDS011;66155;46.204;5.220;2024-03-23T15:59:01;4.13;;;3.00;;
48873;SDS011;66155;46.204;5.220;2024-03-23T16:09:08;3.33;;;1.90;;
48873;SDS011;66155;46.204;5.220;2024-03-23T16:14:09;7.50;;;2.35;;
48873;SDS011;66155;46.204;5.220;2024-03-23T16:19:09;3.65;;;2.00;;
48873;SDS011;66155;46.204;5.220;2024-03-23T16:24:11;5.55;;;4.70;;
48873;SDS011;66155;46.204;5.220;2024-03-23T16:29:12;3.30;;;2.90;;
48873;SDS011;66155;46.204;5.220;2024-03-23T16:34:12;4.00;;;2.35;;
48873;SDS011;66155;46.204;5.220;2024-03-23T16:39:13;5.15;;;2.83;;
48873;SDS011;66155;46.204;5.220;2024-03-23T16:44:15;2.08;;;1.98;;
48873;SDS011;66155;46.204;5.220;2024-03-23T16:49:15;4.82;;;3.08;;
48873;SDS011;66155;46.204;5.220;2024-03-23T16:54:16;6.53;;;3.42;;
48873;SDS011;66155;46.204;5.220;2024-03-23T16:59:16;4.68;;;2.45;;
48873;SDS011;66155;46.204;5.220;2024-03-23T17:04:18;3.03;;;2.60;;
48873;SDS011;66155;46.204;5.220;2024-03-23T17:09:20;4.07;;;2.50;;
48873;SDS011;66155;46.204;5.220;2024-03-23T17:14:21;3.65;;;2.00;;
48873;SDS011;66155;46.204;5.220;2024-03-23T17:19:21;2.78;;;2.58;;
48873;SDS011;66155;46.204;5.220;2024-03-23T17:24:22;4.07;;;2.22;;
48873;SDS011;66155;46.204;5.220;2024-03-23T17:29:23;3.15;;;2.17;;
48873;SDS011;66155;46.204;5.220;2024-03-23T17:34:24;6.82;;;3.03;;
48873;SDS011;66155;46.204;5.220;2024-03-23T17:39:25;5.22;;;2.58;;
48873;SDS011;66155;46.204;5.220;2024-03-23T17:44:26;2.33;;;2.13;;
48873;SDS011;66155;46.204;5.220;2024-03-23T17:49:26;4.38;;;2.20;;
48873;SDS011;66155;46.204;5.220;2024-03-23T17:54:26;5.97;;;2.67;;
48873;SDS011;66155;46.204;5.220;2024-03-23T17:59:27;8.38;;;3.22;;
48873;SDS011;66155;46.204;5.220;2024-03-23T18:04:27;8.10;;;2.77;;
48873;SDS011;66155;46.204;5.220;2024-03-23T18:09:28;5.30;;;2.97;;
48873;SDS011;66155;46.204;5.220;2024-03-23T18:14:28;5.10;;;2.20;;
48873;SDS011;66155;46.204;5.220;2024-03-23T18:19:29;4.97;;;2.17;;
48873;SDS011;66155;46.204;5.220;2024-03-23T18:24:31;5.82;;;2.40;;
48873;SDS011;66155;46.204;5.220;2024-03-23T18:29:31;3.30;;;2.42;;
48873;SDS011;66155;46.204;5.220;2024-03-23T18:34:32;4.05;;;3.63;;
48873;SDS011;66155;46.204;5.220;2024-03-23T18:39:32;5.45;;;2.17;;
48873;SDS011;66155;46.204;5.220;2024-03-23T18:44:33;4.38;;;2.10;;
48873;SDS011;66155;46.204;5.220;2024-03-23T18:49:33;3.55;;;2.25;;
48873;SDS011;66155;46.204;5.220;2024-03-23T18:54:33;6.32;;;2.70;;
48873;SDS011;66155;46.204;5.220;2024-03-23T18:59:34;4.57;;;1.90;;
48873;SDS011;66155;46.204;5.220;2024-03-23T19:04:34;6.10;;;4.97;;
48873;SDS011;66155;46.204;5.220;2024-03-23T19:09:35;6.17;;;4.53;;
48873;SDS011;66155;46.204;5.220;2024-03-23T19:14:35;2.38;;;2.08;;
48873;SDS011;66155;46.204;5.220;2024-03-23T19:19:35;4.63;;;2.70;;
48873;SDS011;66155;46.204;5.220;2024-03-23T19:24:36;4.93;;;2.53;;
48873;SDS011;66155;46.204;5.220;2024-03-23T19:29:36;5.07;;;2.27;;
48873;SDS011;66155;46.204;5.220;2024-03-23T19:34:36;4.97;;;2.20;;
48873;SDS011;66155;46.204;5.220;2024-03-23T19:39:37;3.40;;;2.10;;
48873;SDS011;66155;46.204;5.220;2024-03-23T19:44:41;3.42;;;2.30;;
48873;SDS011;66155;46.204;5.220;2024-03-23T19:49:41;5.45;;;2.20;;
48873;SDS011;66155;46.204;5.220;2024-03-23T19:54:42;5.47;;;2.13;;
48873;SDS011;66155;46.204;5.220;2024-03-23T19:59:42;3.88;;;2.20;;
48873;SDS011;66155;46.204;5.220;2024-03-23T20:04:43;4.50;;;2.35;;
48873;SDS011;66155;46.204;5.220;2024-03-23T20:09:43;5.20;;;2.20;;
48873;SDS011;66155;46.204;5.220;2024-03-23T20:14:44;2.90;;;2.40;;
48873;SDS011;66155;46.204;5.220;2024-03-23T20:19:46;6.70;;;2.80;;
48873;SDS011;66155;46.204;5.220;2024-03-23T20:24:46;3.77;;;2.67;;
48873;SDS011;66155;46.204;5.220;2024-03-23T20:29:46;7.72;;;2.83;;
48873;SDS011;66155;46.204;5.220;2024-03-23T20:34:48;5.30;;;2.40;;
48873;SDS011;66155;46.204;5.220;2024-03-23T20:39:48;4.65;;;2.47;;
48873;SDS011;66155;46.204;5.220;2024-03-23T20:44:49;3.80;;;2.20;;
48873;SDS011;66155;46.204;5.220;2024-03-23T20:49:51;6.32;;;2.95;;
48873;SDS011;66155;46.204;5.220;2024-03-23T20:54:52;6.57;;;2.73;;
48873;SDS011;66155;46.204;5.220;2024-03-23T20:59:52;5.63;;;2.63;;
48873;SDS011;66155;46.204;5.220;2024-03-23T21:04:53;4.13;;;2.75;;
48873;SDS011;66155;46.204;5.220;2024-03-23T21:09:53;6.87;;;2.13;;
48873;SDS011;66155;46.204;5.220;2024-03-23T21:14:53;5.37;;;2.50;;
48873;SDS011;66155;46.204;5.220;2024-03-23T21:19:54;6.88;;;2.47;;
48873;SDS011;66155;46.204;5.220;2024-03-23T21:24:54;8.77;;;2.53;;
48873;SDS011;66155;46.204;5.220;2024-03-23T21:29:54;5.57;;;2.30;;
48873;SDS011;66155;46.204;5.220;2024-03-23T21:34:55;8.13;;;2.35;;
48873;SDS011;66155;46.204;5.220;2024-03-23T21:39:56;8.65;;;2.70;;
48873;SDS011;66155;46.204;5.220;2024-03-23T21:44:56;3.57;;;2.33;;
48873;SDS011;66155;46.204;5.220;2024-03-23T21:49:56;3.87;;;2.17;;
48873;SDS011;66155;46.204;5.220;2024-03-23T21:54:57;6.03;;;2.23;;
48873;SDS011;66155;46.204;5.220;2024-03-23T21:59:57;5.43;;;1.95;;
48873;SDS011;66155;46.204;5.220;2024-03-23T22:04:58;3.20;;;1.85;;
48873;SDS011;66155;46.204;5.220;2024-03-23T22:09:58;4.63;;;2.05;;
48873;SDS011;66155;46.204;5.220;2024-03-23T22:14:58;6.60;;;2.30;;
48873;SDS011;66155;46.204;5.220;2024-03-23T22:20:00;6.45;;;2.03;;
48873;SDS011;66155;46.204;5.220;2024-03-23T22:25:00;4.20;;;2.23;;
48873;SDS011;66155;46.204;5.220;2024-03-23T22:30:01;6.78;;;1.98;;
48873;SDS011;66155;46.204;5.220;2024-03-23T22:35:01;6.00;;;2.53;;
48873;SDS011;66155;46.204;5.220;2024-03-23T22:40:03;6.03;;;3.10;;
48873;SDS011;66155;46.204;5.220;2024-03-23T22:45:05;6.30;;;2.50;;
48873;SDS011;66155;46.204;5.220;2024-03-23T22:50:06;5.03;;;2.13;;
48873;SDS011;66155;46.204;5.220;2024-03-23T22:55:10;5.38;;;2.03;;
48873;SDS011;66155;46.204;5.220;2024-03-23T23:00:10;6.57;;;2.10;;
48873;SDS011;66155;46.204;5.220;2024-03-23T23:05:11;4.43;;;1.90;;
48873;SDS011;66155;46.204;5.220;2024-03-23T23:10:12;7.18;;;2.30;;
48873;SDS011;66155;46.204;5.220;2024-03-23T23:15:12;3.35;;;2.08;;
48873;SDS011;66155;46.204;5.220;2024-03-23T23:20:14;5.25;;;2.15;;
48873;SDS011;66155;46.204;5.220;2024-03-23T23:25:15;4.97;;;2.30;;
48873;SDS011;66155;46.204;5.220;2024-03-23T23:30:15;4.70;;;2.30;;
48873;SDS011;66155;46.204;5.220;2024-03-23T23:35:15;5.05;;;2.30;;
48873;SDS011;66155;46.204;5.220;2024-03-23T23:40:16;6.43;;;2.00;;
48873;SDS011;66155;46.204;5.220;2024-03-23T23:45:16;3.42;;;1.98;;
48873;SDS011;66155;46.204;5.220;2024-03-23T23:50:17;3.45;;;1.88;;
48873;SDS011;66155;46.204;5.220;2024-03-23T23:55:17;4.28;;;2.10;;
